Time;durP1;ratioP1;P1;durP2;ratioP2;P2;SDS_P1;SDS_P2;PMS_P1;PMS_P2;Temp;Humidity;BMP_temperature;BMP_pressure;BME280_temperature;BME280_humidity;BME280_pressure;Samples;Min_cycle;Max_cycle;Signal;HPM_P1;HPM_P2
2023/05/08 00:00:23;;;;;;;;;;;;;;;14.47;51.52;100319.16;4427995;32;34962;-78
2023/05/08 00:02:51;;;;;;;;;;;;;;;14.48;51.63;100320.94;4439813;32;34249;-79
2023/05/08 00:05:23;;;;;;;;;;;;;;;14.36;51.68;100318.87;4438696;32;33132;-78
2023/05/08 00:07:52;;;;;;;;;;;;;;;14.33;52.35;100324.31;4420457;32;33886;-79
2023/05/08 00:10:19;;;;;;;;;;;;;;;14.41;51.35;100316.81;4445808;32;33866;-79
2023/05/08 00:12:47;;;;;;;;;;;;;;;14.33;52.17;100324.31;4428249;32;32661;-79
2023/05/08 00:15:16;;;;;;;;;;;;;;;14.36;52.29;100321.53;4431347;32;32872;-79
2023/05/08 00:17:43;;;;;;;;;;;;;;;14.42;51.78;100323.84;4431717;32;33733;-79
2023/05/08 00:20:11;;;;;;;;;;;;;;;14.31;52.65;100326.22;4425624;32;33420;-79
2023/05/08 00:22:39;;;;;;;;;;;;;;;14.17;52.96;100334.00;4429141;32;34117;-79
2023/05/08 00:25:08;;;;;;;;;;;;;;;14.11;53.24;100323.69;4421338;32;34221;-79
2023/05/08 00:27:35;;;;;;;;;;;;;;;14.04;53.85;100323.12;4433400;32;34960;-79
2023/05/08 00:30:05;;;;;;;;;;;;;;;14.17;53.69;100328.69;4418690;32;33470;-78
2023/05/08 00:32:32;;;;;;;;;;;;;;;14.09;54.21;100332.59;4405960;32;33904;-79
2023/05/08 00:34:59;;;;;;;;;;;;;;;14.10;53.94;100330.81;4421437;32;32979;-79
2023/05/08 00:37:27;;;;;;;;;;;;;;;14.01;54.47;100334.78;4419746;32;34155;-79
2023/05/08 00:39:55;;;;;;;;;;;;;;;13.83;55.26;100335.69;4430039;32;33788;-79
2023/05/08 00:42:27;;;;;;;;;;;;;;;13.93;54.96;100336.94;4431271;32;34093;-79
2023/05/08 00:44:55;;;;;;;;;;;;;;;13.86;54.86;100337.31;4443904;32;33200;-79
2023/05/08 00:47:23;;;;;;;;;;;;;;;13.75;55.08;100337.84;4417691;32;34226;-79
2023/05/08 00:49:51;;;;;;;;;;;;;;;13.86;54.56;100337.31;4429871;32;33398;-79
2023/05/08 00:52:18;;;;;;;;;;;;;;;13.73;54.72;100345.03;4417538;32;33372;-78
2023/05/08 00:54:46;;;;;;;;;;;;;;;13.67;54.83;100340.84;4417939;32;32976;-79
2023/05/08 00:57:14;;;;;;;;;;;;;;;13.72;54.67;100340.62;4406577;32;34117;-79
2023/05/08 00:59:42;;;;;;;;;;;;;;;13.80;54.40;100341.13;4418194;32;33364;-79
2023/05/08 01:02:09;;;;;;;;;;;;;;;13.79;54.54;100340.25;4430728;32;34627;-79
2023/05/08 01:04:37;;;;;;;;;;;;;;;13.81;54.77;100349.03;4405962;32;32143;-79
2023/05/08 01:07:05;;;;;;;;;;;;;;;13.79;54.43;100352.69;4417485;32;34820;-79
2023/05/08 01:09:32;;;;;;;;;;;;;;;13.72;54.71;100353.91;4415589;32;33845;-79
2023/05/08 01:12:18;;;;;;;;;;;;;;;13.64;55.13;100346.31;4433019;32;33729;-79
2023/05/08 01:14:51;;;;;;;;;;;;;;;13.66;54.99;100349.75;4443418;32;33788;-79
2023/05/08 01:17:37;;;;;;;;;;;;;;;13.82;54.21;100361.38;4431602;32;32785;-79
2023/05/08 01:20:27;;;;;;;;;;;;;;;13.92;53.65;100361.78;4419541;32;33547;-79
2023/05/08 01:23:28;;;;;;;;;;;;;;;13.50;54.98;100360.22;4428796;32;32635;-79
2023/05/08 01:26:01;;;;;;;;;;;;;;;13.36;55.66;100364.47;4403639;32;32294;-79
2023/05/08 01:28:42;;;;;;;;;;;;;;;13.50;55.22;100364.69;4426198;32;33522;-79
2023/05/08 01:31:13;;;;;;;;;;;;;;;13.54;54.63;100375.06;4418287;32;34010;-79
2023/05/08 01:33:42;;;;;;;;;;;;;;;13.37;55.32;100376.78;4443352;32;34117;-79
2023/05/08 01:36:17;;;;;;;;;;;;;;;13.35;55.52;100379.50;4434686;32;33801;-79
2023/05/08 01:38:44;;;;;;;;;;;;;;;13.26;56.49;100380.78;4428723;32;34020;-79
2023/05/08 01:41:15;;;;;;;;;;;;;;;13.38;55.95;100375.84;4441885;32;34001;-79
2023/05/08 01:44:00;;;;;;;;;;;;;;;13.31;56.29;100380.59;4404918;32;33972;-79
2023/05/08 01:46:28;;;;;;;;;;;;;;;13.31;56.25;100380.59;4428284;32;32639;-78
2023/05/08 01:49:07;;;;;;;;;;;;;;;13.08;56.85;100385.09;4431180;32;33780;-78
2023/05/08 01:51:45;;;;;;;;;;;;;;;13.39;55.71;100381.09;4415235;32;33860;-78
2023/05/08 01:54:16;;;;;;;;;;;;;;;13.22;56.27;100381.00;4419081;32;32890;-78
2023/05/08 01:56:44;;;;;;;;;;;;;;;13.15;56.84;100384.81;4430531;32;33970;-78
2023/05/08 01:59:12;;;;;;;;;;;;;;;13.11;56.53;100388.56;4417236;32;34600;-78
2023/05/08 02:01:42;;;;;;;;;;;;;;;13.19;56.33;100391.69;4418145;32;33825;-78
2023/05/08 02:04:10;;;;;;;;;;;;;;;13.19;56.00;100391.69;4418059;32;34297;-78
2023/05/08 02:06:37;;;;;;;;;;;;;;;13.08;56.38;100390.41;4438352;32;32867;-78
2023/05/08 02:09:06;;;;;;;;;;;;;;;13.03;56.73;100396.84;4432995;32;34179;-79
2023/05/08 02:11:35;;;;;;;;;;;;;;;12.92;57.03;100388.50;4432260;32;35066;-79
2023/05/08 02:14:03;;;;;;;;;;;;;;;13.04;56.65;100406.50;4436445;32;34786;-79
2023/05/08 02:16:31;;;;;;;;;;;;;;;12.87;56.70;100396.66;4444465;32;32446;-79
2023/05/08 02:18:59;;;;;;;;;;;;;;;12.91;56.82;100400.00;4442453;32;34622;-79
2023/05/08 02:21:26;;;;;;;;;;;;;;;12.96;56.46;100401.56;4438576;32;32978;-79
2023/05/08 02:23:55;;;;;;;;;;;;;;;12.79;56.95;100393.47;4432851;32;34814;-79
2023/05/08 02:26:26;;;;;;;;;;;;;;;12.86;56.90;100402.00;4433466;32;32497;-79
2023/05/08 02:28:54;;;;;;;;;;;;;;;12.91;56.68;100403.53;4445489;32;34196;-80
2023/05/08 02:31:24;;;;;;;;;;;;;;;12.92;56.69;100397.31;4432898;32;33312;-79
2023/05/08 02:33:51;;;;;;;;;;;;;;;12.82;57.03;100406.59;4433983;32;33079;-79
2023/05/08 02:36:18;;;;;;;;;;;;;;;12.90;56.62;100399.16;4439564;32;32857;-79
2023/05/08 02:38:50;;;;;;;;;;;;;;;12.89;56.62;100404.53;4450582;32;33458;-78
2023/05/08 02:41:18;;;;;;;;;;;;;;;12.88;56.68;100403.69;4430623;32;34327;-78
2023/05/08 02:43:46;;;;;;;;;;;;;;;12.80;57.02;100405.78;4423521;32;34120;-78
2023/05/08 02:46:17;;;;;;;;;;;;;;;12.85;56.70;100409.09;4413379;32;32152;-79
2023/05/08 02:48:51;;;;;;;;;;;;;;;12.69;56.98;100408.06;4433964;32;34227;-78
2023/05/08 02:51:37;;;;;;;;;;;;;;;12.51;57.94;100407.88;4455122;32;34157;-78
2023/05/08 02:54:16;;;;;;;;;;;;;;;12.51;57.65;100415.84;4440795;32;33928;-78
2023/05/08 02:56:48;;;;;;;;;;;;;;;12.69;56.94;100413.34;4444361;32;33148;-78
2023/05/08 02:59:16;;;;;;;;;;;;;;;12.56;57.97;100419.16;4456136;32;33906;-79
2023/05/08 03:01:49;;;;;;;;;;;;;;;12.61;57.87;100415.44;4427401;32;33987;-79
2023/05/08 03:04:28;;;;;;;;;;;;;;;12.66;57.81;100408.16;4435178;32;33803;-79
2023/05/08 03:06:56;;;;;;;;;;;;;;;12.70;57.48;100409.75;4444751;32;33094;-78
2023/05/08 03:09:25;;;;;;;;;;;;;;;12.64;57.54;100410.91;4448193;32;34202;-79
2023/05/08 03:11:59;;;;;;;;;;;;;;;12.58;57.70;100411.16;4435244;32;34253;-79
2023/05/08 03:14:27;;;;;;;;;;;;;;;12.68;57.08;100414.28;4440733;32;33678;-79
2023/05/08 03:16:55;;;;;;;;;;;;;;;12.61;57.18;100413.66;4448499;32;33409;-79
2023/05/08 03:19:23;;;;;;;;;;;;;;;12.51;57.65;100418.47;4435459;32;34208;-78
2023/05/08 03:21:52;;;;;;;;;;;;;;;12.56;57.61;100413.84;4449392;32;34812;-79
2023/05/08 03:24:20;;;;;;;;;;;;;;;12.54;57.80;100414.88;4449509;32;33838;-78
2023/05/08 03:26:48;;;;;;;;;;;;;;;12.56;57.70;100408.56;4440223;32;32244;-79
2023/05/08 03:29:17;;;;;;;;;;;;;;;12.96;55.84;100416.56;4448242;32;33518;-79
2023/05/08 03:31:45;;;;;;;;;;;;;;;12.57;57.13;100418.22;4446798;32;34112;-78
2023/05/08 03:34:14;;;;;;;;;;;;;;;12.34;58.48;100423.59;4423789;32;32871;-79
2023/05/08 03:36:43;;;;;;;;;;;;;;;12.45;57.97;100416.09;4445348;32;33365;-78
2023/05/08 03:39:11;;;;;;;;;;;;;;;12.53;57.79;100421.94;4421196;32;32982;-79
2023/05/08 03:41:46;;;;;;;;;;;;;;;12.43;58.11;100422.38;4422499;32;34546;-78
2023/05/08 03:44:15;;;;;;;;;;;;;;;12.47;58.05;100419.53;4415824;32;32845;-78
2023/05/08 03:46:44;;;;;;;;;;;;;;;12.51;57.62;100426.44;4413985;32;33273;-78
2023/05/08 03:49:12;;;;;;;;;;;;;;;12.51;57.88;100426.44;4446984;32;33466;-79
2023/05/08 03:51:41;;;;;;;;;;;;;;;12.54;57.69;100430.75;4426849;32;33836;-79
2023/05/08 03:54:08;;;;;;;;;;;;;;;12.41;58.25;100433.03;4434820;32;34852;-79
2023/05/08 03:56:37;;;;;;;;;;;;;;;12.36;58.16;100427.06;4447332;32;33848;-79
2023/05/08 03:59:20;;;;;;;;;;;;;;;12.47;58.34;100429.28;4447093;32;33977;-79
2023/05/08 04:01:49;;;;;;;;;;;;;;;12.45;58.44;100436.44;4433561;32;34170;-79
2023/05/08 04:04:29;;;;;;;;;;;;;;;12.62;58.00;100433.06;4433956;32;33815;-79
2023/05/08 04:07:10;;;;;;;;;;;;;;;12.59;58.51;100435.88;4433572;32;33371;-80
2023/05/08 04:09:58;;;;;;;;;;;;;;;12.75;57.75;100436.94;4445286;32;34288;-79
2023/05/08 04:12:31;;;;;;;;;;;;;;;12.79;57.45;100435.88;4429982;32;34071;-79
2023/05/08 04:15:13;;;;;;;;;;;;;;;13.01;56.86;100444.63;4445725;32;33727;-79
2023/05/08 04:17:47;;;;;;;;;;;;;;;12.81;57.64;100448.13;4435285;32;33296;-79
2023/05/08 04:20:17;;;;;;;;;;;;;;;12.84;57.88;100449.78;4446395;32;33912;-79
2023/05/08 04:22:47;;;;;;;;;;;;;;;12.73;58.04;100446.75;4446040;32;34225;-79
2023/05/08 04:25:17;;;;;;;;;;;;;;;12.67;58.06;100447.84;4435402;32;33925;-79
2023/05/08 04:27:47;;;;;;;;;;;;;;;12.63;58.03;100456.88;4443364;32;34398;-79
2023/05/08 04:30:20;;;;;;;;;;;;;;;12.86;57.62;100453.22;4446594;32;34757;-79
2023/05/08 04:32:58;;;;;;;;;;;;;;;12.85;57.75;100463.91;4422917;32;34180;-79
2023/05/08 04:35:26;;;;;;;;;;;;;;;12.84;57.67;100460.37;4444585;32;34339;-79
2023/05/08 04:37:55;;;;;;;;;;;;;;;12.79;58.57;100465.03;4447093;32;34048;-79
2023/05/08 04:40:25;;;;;;;;;;;;;;;12.49;59.17;100473.31;4432991;32;33056;-79
2023/05/08 04:42:55;;;;;;;;;;;;;;;12.87;58.35;100465.56;4445585;32;32971;-79
2023/05/08 04:45:26;;;;;;;;;;;;;;;13.18;57.35;100480.16;4436994;32;32489;-79
2023/05/08 04:47:57;;;;;;;;;;;;;;;13.37;57.10;100474.94;4420890;32;32320;-79
2023/05/08 04:50:26;;;;;;;;;;;;;;;13.31;57.41;100478.72;4446740;32;34779;-78
2023/05/08 04:52:56;;;;;;;;;;;;;;;13.40;57.05;100485.41;4434446;32;35486;-79
2023/05/08 04:55:25;;;;;;;;;;;;;;;13.41;57.15;100487.13;4447329;32;34864;-79
2023/05/08 04:57:54;;;;;;;;;;;;;;;13.51;56.98;100488.44;4433931;32;32639;-79
2023/05/08 05:00:23;;;;;;;;;;;;;;;13.54;56.89;100488.31;4453576;32;33913;-78
2023/05/08 05:02:52;;;;;;;;;;;;;;;13.50;57.23;100482.28;4446592;32;33656;-80
2023/05/08 05:05:20;;;;;;;;;;;;;;;13.70;56.91;100485.81;4433284;32;33279;-78
2023/05/08 05:07:49;;;;;;;;;;;;;;;13.61;57.35;100494.19;4436187;32;34117;-79
2023/05/08 05:10:18;;;;;;;;;;;;;;;13.30;58.50;100506.19;4431999;32;33856;-79
2023/05/08 05:12:47;;;;;;;;;;;;;;;13.70;56.83;100501.72;4418402;32;34206;-79
2023/05/08 05:15:18;;;;;;;;;;;;;;;13.20;58.16;100499.53;4428941;32;34582;-78
2023/05/08 05:17:47;;;;;;;;;;;;;;;13.40;58.17;100491.56;4432978;32;33430;-78
2023/05/08 05:20:15;;;;;;;;;;;;;;;13.50;57.17;100492.88;4399144;32;33929;-78
2023/05/08 05:22:44;;;;;;;;;;;;;;;13.31;58.33;100494.63;4417108;32;34634;-79
2023/05/08 05:25:14;;;;;;;;;;;;;;;13.37;58.94;100497.00;4430398;32;34300;-78
2023/05/08 05:27:43;;;;;;;;;;;;;;;13.66;57.92;100503.66;4420025;32;34474;-78
2023/05/08 05:30:13;;;;;;;;;;;;;;;13.79;57.58;100501.31;4430261;32;35013;-79
2023/05/08 05:32:43;;;;;;;;;;;;;;;14.27;55.48;100510.56;4420129;32;35147;-79
2023/05/08 05:35:14;;;;;;;;;;;;;;;14.00;55.98;100499.44;4431581;32;34162;-78
2023/05/08 05:37:43;;;;;;;;;;;;;;;13.95;56.27;100499.66;4429120;32;34038;-79
2023/05/08 05:40:13;;;;;;;;;;;;;;;14.09;56.37;100497.22;4431390;32;34847;-78
2023/05/08 05:42:47;;;;;;;;;;;;;;;14.09;56.31;100510.50;4412503;32;34394;-78
2023/05/08 05:45:17;;;;;;;;;;;;;;;13.97;56.83;100511.09;4420614;32;34110;-78
2023/05/08 05:47:49;;;;;;;;;;;;;;;13.96;57.05;100517.34;4416755;32;32784;-78
2023/05/08 05:50:17;;;;;;;;;;;;;;;14.23;56.46;100509.84;4430799;32;33951;-78
2023/05/08 05:52:45;;;;;;;;;;;;;;;14.25;56.63;100517.78;4432208;32;34018;-79
2023/05/08 05:55:16;;;;;;;;;;;;;;;14.35;56.10;100524.38;4431726;32;33915;-78
2023/05/08 05:57:46;;;;;;;;;;;;;;;14.62;54.84;100523.97;4418667;32;32632;-78
2023/05/08 06:02:53;;;;;;;;;;;;;;;14.64;54.58;100520.34;4430772;32;34065;-79
2023/05/08 06:05:21;;;;;;;;;;;;;;;15.16;52.07;100516.88;4433522;32;34496;-79
2023/05/08 06:07:50;;;;;;;;;;;;;;;14.89;51.54;100525.28;4459701;32;33201;-79
2023/05/08 06:10:19;;;;;;;;;;;;;;;14.73;52.49;100521.69;4431548;32;35558;-79
2023/05/08 06:12:50;;;;;;;;;;;;;;;14.80;50.45;100517.75;4447586;32;33805;-79
2023/05/08 06:15:21;;;;;;;;;;;;;;;15.06;49.17;100514.66;4446931;32;34371;-78
2023/05/08 06:17:57;;;;;;;;;;;;;;;15.16;47.75;100511.53;4448785;32;33279;-78
2023/05/08 06:20:27;;;;;;;;;;;;;;;15.33;47.29;100509.75;4432259;32;33946;-79
2023/05/08 06:22:55;;;;;;;;;;;;;;;15.18;48.21;100514.97;4460378;32;34617;-79
2023/05/08 06:25:23;;;;;;;;;;;;;;;15.46;47.56;100517.91;4433403;32;34666;-78
2023/05/08 06:27:53;;;;;;;;;;;;;;;15.62;46.50;100510.88;4421246;32;31774;-78
2023/05/08 06:30:28;;;;;;;;;;;;;;;15.54;44.34;100517.53;4431743;32;34014;-78
2023/05/08 06:33:00;;;;;;;;;;;;;;;15.67;45.41;100513.31;4433281;32;33713;-79
2023/05/08 06:38:05;;;;;;;;;;;;;;;15.30;44.36;100519.66;4445563;32;33096;-79
2023/05/08 06:40:34;;;;;;;;;;;;;;;14.93;43.97;100529.53;4435870;32;34747;-78
2023/05/08 06:43:04;;;;;;;;;;;;;;;14.68;44.87;100529.88;4445285;32;34313;-78
2023/05/08 06:45:33;;;;;;;;;;;;;;;14.67;43.93;100529.94;4436039;32;34486;-79
2023/05/08 06:48:01;;;;;;;;;;;;;;;14.49;43.91;100537.03;4447691;32;32885;-78
2023/05/08 06:50:38;;;;;;;;;;;;;;;14.31;44.62;100533.41;4444240;32;34736;-78
2023/05/08 06:53:06;;;;;;;;;;;;;;;13.73;45.65;100530.81;4433343;32;33212;-78
2023/05/08 06:55:34;;;;;;;;;;;;;;;14.15;46.96;100537.69;4445660;32;33302;-78
2023/05/08 06:58:04;;;;;;;;;;;;;;;14.53;45.17;100538.59;4444506;32;33015;-78
2023/05/08 07:00:33;;;;;;;;;;;;;;;14.84;44.18;100545.94;4434047;32;34034;-78
2023/05/08 07:03:03;;;;;;;;;;;;;;;14.68;44.00;100545.84;4431417;32;34971;-78
2023/05/08 07:05:34;;;;;;;;;;;;;;;14.79;44.26;100537.31;4446576;32;34036;-78
2023/05/08 07:08:03;;;;;;;;;;;;;;;14.75;44.62;100538.41;4428580;32;33621;-78
2023/05/08 07:10:39;;;;;;;;;;;;;;;14.85;43.93;100537.88;4418075;32;32709;-78
2023/05/08 07:13:22;;;;;;;;;;;;;;;14.52;44.32;100537.72;4422164;32;33186;-78
2023/05/08 07:15:54;;;;;;;;;;;;;;;14.74;44.47;100547.31;4438541;32;33756;-78
2023/05/08 07:18:25;;;;;;;;;;;;;;;15.00;44.06;100546.91;4423753;32;33897;-79
2023/05/08 07:20:59;;;;;;;;;;;;;;;15.57;44.18;100542.19;4397436;32;33492;-77
2023/05/08 07:23:28;;;;;;;;;;;;;;;15.64;42.36;100544.56;4421387;32;33866;-78
2023/05/08 07:25:58;;;;;;;;;;;;;;;15.79;42.18;100533.09;4410348;32;32551;-78
2023/05/08 07:28:31;;;;;;;;;;;;;;;15.89;43.27;100539.63;4410807;32;33293;-78
2023/05/08 07:31:07;;;;;;;;;;;;;;;15.58;43.34;100538.59;4424929;32;32976;-77
2023/05/08 07:33:35;;;;;;;;;;;;;;;15.83;43.15;100530.16;4423324;32;33925;-78
2023/05/08 07:36:03;;;;;;;;;;;;;;;16.48;40.63;100532.81;4422606;32;34260;-78
2023/05/08 07:38:32;;;;;;;;;;;;;;;16.06;41.13;100531.59;4440481;32;32997;-78
2023/05/08 07:41:06;;;;;;;;;;;;;;;16.09;41.27;100536.75;4439677;32;33409;-78
2023/05/08 07:43:36;;;;;;;;;;;;;;;16.10;41.80;100537.63;4424372;32;34936;-78
2023/05/08 07:46:04;;;;;;;;;;;;;;;16.15;41.47;100538.22;4424246;32;34777;-78
2023/05/08 07:48:33;;;;;;;;;;;;;;;16.38;41.28;100536.97;4413397;32;33209;-78
2023/05/08 07:51:03;;;;;;;;;;;;;;;16.92;40.98;100534.78;4424745;32;34234;-78
2023/05/08 07:53:31;;;;;;;;;;;;;;;17.02;39.68;100532.41;4424954;32;33969;-78
2023/05/08 07:56:04;;;;;;;;;;;;;;;17.18;39.94;100535.03;4439251;32;34035;-78
2023/05/08 07:58:35;;;;;;;;;;;;;;;17.16;39.74;100529.78;4424970;32;32487;-78
2023/05/08 08:01:03;;;;;;;;;;;;;;;16.93;39.39;100539.16;4423615;32;34968;-78
2023/05/08 08:03:33;;;;;;;;;;;;;;;17.56;38.49;100538.06;4424720;32;33008;-78
2023/05/08 08:06:04;;;;;;;;;;;;;;;17.15;40.21;100531.59;4428903;32;33803;-78
2023/05/08 08:08:33;;;;;;;;;;;;;;;17.60;38.71;100528.91;4439345;32;33297;-78
2023/05/08 08:11:07;;;;;;;;;;;;;;;17.44;39.63;100529.00;4439208;32;33927;-78
2023/05/08 08:13:36;;;;;;;;;;;;;;;17.54;38.94;100530.16;4439665;32;33310;-78
2023/05/08 08:16:05;;;;;;;;;;;;;;;17.65;38.51;100522.34;4438639;32;33984;-78
2023/05/08 08:18:41;;;;;;;;;;;;;;;18.37;39.23;100527.66;4439236;32;33084;-78
2023/05/08 08:21:11;;;;;;;;;;;;;;;18.09;37.08;100532.13;4439091;32;34663;-78
2023/05/08 08:23:39;;;;;;;;;;;;;;;18.39;37.97;100523.94;4439644;32;35963;-78
2023/05/08 08:26:07;;;;;;;;;;;;;;;17.83;38.12;100525.72;4427101;32;33874;-78
2023/05/08 08:28:36;;;;;;;;;;;;;;;17.69;40.15;100539.03;4426756;32;33361;-78
2023/05/08 08:31:05;;;;;;;;;;;;;;;18.26;37.88;100525.69;4440094;32;34148;-78
2023/05/08 08:33:36;;;;;;;;;;;;;;;18.66;35.80;100523.97;4439904;32;33876;-78
2023/05/08 08:36:05;;;;;;;;;;;;;;;18.27;37.75;100523.88;4414013;32;32615;-78
2023/05/08 08:38:36;;;;;;;;;;;;;;;18.70;36.34;100518.44;4433765;32;32265;-79
2023/05/08 08:41:04;;;;;;;;;;;;;;;18.72;36.75;100524.56;4439380;32;34972;-78
2023/05/08 08:43:33;;;;;;;;;;;;;;;18.57;36.84;100527.25;4426782;32;34329;-78
2023/05/08 08:46:09;;;;;;;;;;;;;;;18.75;36.73;100524.31;4427345;32;34001;-78
2023/05/08 08:48:41;;;;;;;;;;;;;;;18.10;37.15;100519.59;4438313;32;33547;-78
2023/05/08 08:54:12;;;;;;;;;;;;;;;18.65;37.38;100519.53;4441164;32;34404;-78
2023/05/08 08:56:43;;;;;;;;;;;;;;;18.93;37.39;100523.09;4426918;32;32969;-78
2023/05/08 08:59:12;;;;;;;;;;;;;;;19.04;35.57;100515.22;4425709;32;32250;-78
2023/05/08 09:01:42;;;;;;;;;;;;;;;19.55;35.42;100515.28;4439592;32;34170;-78
2023/05/08 09:06:57;;;;;;;;;;;;;;;19.40;35.36;100516.34;4438015;32;34463;-79
2023/05/08 09:12:04;;;;;;;;;;;;;;;18.27;35.14;100530.06;4427494;32;34766;-78
2023/05/08 09:14:38;;;;;;;;;;;;;;;19.01;35.29;100518.09;4413642;32;34038;-78
2023/05/08 09:17:09;;;;;;;;;;;;;;;18.91;34.66;100511.66;4437074;32;33619;-79
2023/05/08 09:19:48;;;;;;;;;;;;;;;19.30;35.04;100516.13;4419839;32;31985;-79
2023/05/08 09:22:19;;;;;;;;;;;;;;;18.53;35.37;100516.84;4407275;32;32495;-78
2023/05/08 09:24:56;;;;;;;;;;;;;;;19.36;36.78;100512.16;4419003;32;33556;-77
2023/05/08 09:27:26;;;;;;;;;;;;;;;19.91;33.69;100501.16;4416676;32;33532;-78
2023/05/08 09:30:00;;;;;;;;;;;;;;;19.34;34.39;100506.06;4415797;32;34354;-78
2023/05/08 09:32:33;;;;;;;;;;;;;;;19.73;32.52;100504.28;4435175;32;34323;-78
2023/05/08 09:35:11;;;;;;;;;;;;;;;19.77;32.85;100497.75;4430744;32;35040;-78
2023/05/08 09:37:46;;;;;;;;;;;;;;;19.59;32.21;100506.06;4423064;32;33911;-78
2023/05/08 09:40:18;;;;;;;;;;;;;;;19.83;33.32;100502.66;4440788;32;33498;-78
2023/05/08 09:42:49;;;;;;;;;;;;;;;19.94;31.89;100500.94;4422769;32;34020;-78
2023/05/08 09:48:05;;;;;;;;;;;;;;;19.74;30.42;100501.47;4433902;32;33674;-79
2023/05/08 09:50:35;;;;;;;;;;;;;;;19.87;29.30;100498.78;4444778;32;33804;-78
2023/05/08 09:53:05;;;;;;;;;;;;;;;20.13;30.23;100495.13;4417353;32;33995;-78
2023/05/08 09:55:45;;;;;;;;;;;;;;;20.24;30.49;100494.31;4406004;32;32568;-79
2023/05/08 09:58:13;;;;;;;;;;;;;;;19.83;30.74;100491.94;4444039;32;34175;-78
2023/05/08 10:00:42;;;;;;;;;;;;;;;20.20;30.67;100485.63;4425455;32;34090;-78
2023/05/08 10:03:11;;;;;;;;;;;;;;;20.37;31.58;100488.94;4445511;32;34299;-78
2023/05/08 10:05:41;;;;;;;;;;;;;;;20.41;30.51;100485.03;4416562;32;32913;-78
2023/05/08 10:08:17;;;;;;;;;;;;;;;20.58;29.31;100489.19;4444868;32;34925;-77
2023/05/08 10:10:52;;;;;;;;;;;;;;;20.66;29.88;100482.28;4444225;32;32499;-78
2023/05/08 10:13:25;;;;;;;;;;;;;;;20.99;30.48;100478.03;4444712;32;33828;-78
2023/05/08 10:15:54;;;;;;;;;;;;;;;21.80;29.07;100470.84;4447110;32;33977;-78
2023/05/08 10:18:24;;;;;;;;;;;;;;;21.98;28.25;100472.03;4444385;32;34093;-78
2023/05/08 10:21:03;;;;;;;;;;;;;;;21.13;28.23;100469.75;4434760;32;32733;-78
2023/05/08 10:23:35;;;;;;;;;;;;;;;20.67;28.91;100472.41;4430706;32;33232;-78
2023/05/08 10:26:14;;;;;;;;;;;;;;;20.96;30.70;100464.81;4432209;32;34833;-78
2023/05/08 10:28:49;;;;;;;;;;;;;;;21.26;30.34;100460.75;4432580;32;33821;-78
2023/05/08 10:31:19;;;;;;;;;;;;;;;21.53;28.14;100461.31;4460769;32;33318;-79
2023/05/08 10:33:55;;;;;;;;;;;;;;;20.86;31.32;100461.13;4438211;32;34599;-78
2023/05/08 10:36:27;;;;;;;;;;;;;;;21.67;29.11;100461.06;4446336;32;34031;-78
2023/05/08 10:38:58;;;;;;;;;;;;;;;21.33;29.53;100464.72;4444781;32;33696;-78
2023/05/08 10:41:28;;;;;;;;;;;;;;;21.68;29.30;100449.31;4431043;32;33432;-78
2023/05/08 10:43:56;;;;;;;;;;;;;;;21.53;27.01;100444.31;4444460;32;34922;-78
2023/05/08 10:46:37;;;;;;;;;;;;;;;20.94;25.98;100456.91;4445788;32;33804;-78
2023/05/08 10:49:17;;;;;;;;;;;;;;;20.82;27.78;100456.97;4435057;32;32437;-78
2023/05/08 10:52:00;;;;;;;;;;;;;;;21.20;27.16;100449.50;4431188;32;33994;-78
2023/05/08 10:58:07;;;;;;;;;;;;;;;21.49;26.77;100443.72;4395665;32;35854;-78
2023/05/08 11:00:51;;;;;;;;;;;;;;;21.16;28.07;100442.66;4449916;32;33869;-80
2023/05/08 11:03:27;;;;;;;;;;;;;;;21.41;27.92;100430.00;4445687;32;33144;-78
2023/05/08 11:06:06;;;;;;;;;;;;;;;21.45;28.17;100442.22;4433065;32;33773;-78
2023/05/08 11:08:53;;;;;;;;;;;;;;;21.15;27.68;100442.78;4427658;32;31961;-78
2023/05/08 11:11:25;;;;;;;;;;;;;;;21.59;27.73;100442.00;4446237;32;34210;-78
2023/05/08 11:16:58;;;;;;;;;;;;;;;22.33;26.85;100422.63;4433975;32;32884;-78
2023/05/08 11:19:27;;;;;;;;;;;;;;;22.22;27.66;100432.44;4441536;32;35100;-78
2023/05/08 11:22:13;;;;;;;;;;;;;;;22.30;27.41;100433.63;4446529;32;35918;-78
2023/05/08 11:24:49;;;;;;;;;;;;;;;22.01;26.74;100430.63;4434277;32;34116;-79
2023/05/08 11:27:31;;;;;;;;;;;;;;;21.55;25.95;100427.09;4444693;32;33818;-79
2023/05/08 11:30:19;;;;;;;;;;;;;;;21.55;27.13;100427.09;4432065;32;33768;-79
2023/05/08 11:33:03;;;;;;;;;;;;;;;21.90;26.73;100426.13;4454030;32;34574;-79
2023/05/08 11:36:05;;;;;;;;;;;;;;;21.94;25.44;100424.88;4453096;32;34137;-79
2023/05/08 11:38:35;;;;;;;;;;;;;;;22.32;25.50;100420.94;4433856;32;33921;-79
2023/05/08 11:41:09;;;;;;;;;;;;;;;21.67;26.81;100410.00;4435277;32;34017;-79
2023/05/08 11:43:49;;;;;;;;;;;;;;;21.37;27.02;100420.50;4444655;32;34034;-79
2023/05/08 11:46:23;;;;;;;;;;;;;;;21.71;26.82;100416.84;4453753;32;33433;-80
2023/05/08 11:48:58;;;;;;;;;;;;;;;22.13;25.37;100419.75;4454207;32;33789;-79
2023/05/08 11:51:32;;;;;;;;;;;;;;;22.31;25.20;100416.50;4446764;32;34202;-79
2023/05/08 11:54:00;;;;;;;;;;;;;;;21.95;25.13;100418.53;4434022;32;33831;-79
2023/05/08 11:56:31;;;;;;;;;;;;;;;22.21;25.59;100419.94;4445886;32;33067;-79
2023/05/08 11:59:02;;;;;;;;;;;;;;;22.24;25.69;100422.41;4446041;32;34339;-79
2023/05/08 12:01:33;;;;;;;;;;;;;;;22.45;25.68;100417.06;4434524;32;33978;-79
2023/05/08 12:04:07;;;;;;;;;;;;;;;22.45;25.52;100424.28;4444298;32;33767;-79
2023/05/08 12:06:37;;;;;;;;;;;;;;;22.30;25.48;100417.50;4432686;32;33912;-79
2023/05/08 12:09:10;;;;;;;;;;;;;;;22.49;24.65;100417.66;4444588;32;34760;-79
2023/05/08 12:11:42;;;;;;;;;;;;;;;22.38;26.01;100420.41;4450256;32;33051;-79
2023/05/08 12:14:18;;;;;;;;;;;;;;;22.42;24.26;100411.09;4431058;32;34017;-78
2023/05/08 12:16:48;;;;;;;;;;;;;;;22.54;25.32;100409.22;4425137;32;31246;-79
2023/05/08 12:19:17;;;;;;;;;;;;;;;22.34;27.27;100418.94;4425775;32;32806;-78
2023/05/08 12:21:50;;;;;;;;;;;;;;;22.60;25.43;100404.19;4427985;32;33900;-78
2023/05/08 12:24:23;;;;;;;;;;;;;;;23.11;25.24;100407.94;4445121;32;34746;-79
2023/05/08 12:27:04;;;;;;;;;;;;;;;23.01;24.70;100410.59;4424880;32;32865;-79
2023/05/08 12:29:45;;;;;;;;;;;;;;;22.87;24.93;100397.41;4444488;32;34910;-79
2023/05/08 12:32:15;;;;;;;;;;;;;;;22.65;25.52;100411.88;4428450;32;32807;-78
2023/05/08 12:34:52;;;;;;;;;;;;;;;22.41;25.39;100409.41;4428853;32;34888;-78
2023/05/08 12:37:26;;;;;;;;;;;;;;;23.14;26.01;100397.78;4424403;32;33644;-78
2023/05/08 12:39:56;;;;;;;;;;;;;;;23.17;26.13;100402.91;4441863;32;34808;-78
2023/05/08 12:42:43;;;;;;;;;;;;;;;22.54;25.98;100418.12;4452234;32;34182;-78
2023/05/08 12:45:17;;;;;;;;;;;;;;;22.47;25.71;100415.12;4441014;32;33584;-79
2023/05/08 12:47:52;;;;;;;;;;;;;;;22.48;25.51;100415.97;4414372;32;32870;-78
2023/05/08 12:50:24;;;;;;;;;;;;;;;23.02;25.02;100409.59;4437016;32;33709;-78
2023/05/08 12:53:09;;;;;;;;;;;;;;;23.27;26.29;100407.50;4432068;32;33024;-78
2023/05/08 12:55:54;;;;;;;;;;;;;;;23.30;25.62;100412.59;4434607;32;34098;-78
2023/05/08 12:58:25;;;;;;;;;;;;;;;23.19;26.22;100400.91;4425862;32;32926;-78
2023/05/08 13:01:02;;;;;;;;;;;;;;;23.55;24.97;100396.00;4438395;32;33563;-78
2023/05/08 13:03:37;;;;;;;;;;;;;;;23.64;24.24;100408.69;4425090;32;33237;-78
2023/05/08 13:06:24;;;;;;;;;;;;;;;23.22;25.46;100407.88;4438247;32;33283;-78
2023/05/08 13:08:57;;;;;;;;;;;;;;;23.36;25.25;100401.25;4424683;32;34365;-78
2023/05/08 13:11:30;;;;;;;;;;;;;;;23.52;24.53;100397.09;4430274;32;33929;-78
2023/05/08 13:14:00;;;;;;;;;;;;;;;23.42;23.98;100400.75;4412955;32;32596;-78
2023/05/08 13:16:41;;;;;;;;;;;;;;;23.13;24.59;100398.75;4429838;32;34324;-78
2023/05/08 13:19:09;;;;;;;;;;;;;;;23.24;25.19;100393.28;4431294;32;33337;-77
2023/05/08 13:21:38;;;;;;;;;;;;;;;23.38;24.64;100399.31;4423016;32;34922;-78